createdAt,value
2023-04-02T00:02:21.713Z,8.40
2023-04-02T00:05:31.434Z,8.30
2023-04-02T00:08:18.125Z,8.30
2023-04-02T00:10:57.688Z,8.30
2023-04-02T00:13:40.405Z,8.20
2023-04-02T00:16:12.794Z,8.20
2023-04-02T00:18:46.914Z,8.10
2023-04-02T00:21:24.878Z,8.10
2023-04-02T00:23:55.587Z,8.10
2023-04-02T00:26:38.241Z,8.10
2023-04-02T00:29:06.753Z,8.10
2023-04-02T00:31:36.137Z,8.00
2023-04-02T00:34:07.262Z,8.00
2023-04-02T00:36:35.190Z,8.00
2023-04-02T00:39:08.666Z,7.90
2023-04-02T00:41:38.892Z,7.90
2023-04-02T00:44:06.198Z,8.00
2023-04-02T00:46:49.688Z,8.00
2023-04-02T00:49:41.618Z,8.00
2023-04-02T00:52:16.645Z,8.00
2023-04-02T00:55:03.552Z,8.00
2023-04-02T00:57:33.488Z,8.00
2023-04-02T01:00:18.730Z,8.00
2023-04-02T01:03:17.730Z,8.00
2023-04-02T01:06:02.790Z,7.90
2023-04-02T01:09:10.406Z,8.00
2023-04-02T01:12:08.039Z,8.00
2023-04-02T01:14:52.539Z,8.00
2023-04-02T01:18:00.295Z,8.00
2023-04-02T01:21:03.497Z,8.00
2023-04-02T01:24:06.337Z,8.00
2023-04-02T01:26:58.142Z,8.00
2023-04-02T01:29:37.201Z,8.00
2023-04-02T01:32:09.582Z,7.90
2023-04-02T01:34:37.811Z,7.90
2023-04-02T01:37:15.138Z,7.90
2023-04-02T01:39:56.863Z,7.90
2023-04-02T01:42:46.130Z,8.00
2023-04-02T01:45:17.490Z,8.00
2023-04-02T01:47:44.926Z,8.00
2023-04-02T01:50:23.571Z,8.00
2023-04-02T01:52:54.585Z,7.90
2023-04-02T01:55:44.278Z,8.00
2023-04-02T01:58:15.320Z,8.00
2023-04-02T02:01:12.347Z,8.00
2023-04-02T02:03:43.323Z,7.90
2023-04-02T02:06:16.496Z,8.00
2023-04-02T02:09:05.532Z,8.00
2023-04-02T02:11:33.789Z,7.90
2023-04-02T02:14:34.281Z,7.90
2023-04-02T02:17:04.201Z,7.90
2023-04-02T02:19:43.541Z,7.90
2023-04-02T02:22:31.607Z,7.90
2023-04-02T02:25:03.555Z,7.90
2023-04-02T02:27:30.662Z,8.00
2023-04-02T02:30:19.851Z,7.90
2023-04-02T02:33:03.334Z,8.00
2023-04-02T02:35:43.346Z,7.90
2023-04-02T02:38:31.925Z,8.00
2023-04-02T02:41:24.557Z,8.00
2023-04-02T02:44:09.950Z,7.90
2023-04-02T02:46:54.814Z,8.00
2023-04-02T02:49:30.519Z,8.00
2023-04-02T02:52:13.932Z,7.90
2023-04-02T02:54:46.285Z,8.00
2023-04-02T02:57:23.612Z,8.00
2023-04-02T02:59:52.434Z,8.00
2023-04-02T03:02:19.632Z,8.10
2023-04-02T03:04:53.175Z,8.20
2023-04-02T03:07:25.475Z,8.10
2023-04-02T03:10:29.864Z,8.10
2023-04-02T03:13:14.386Z,8.10
2023-04-02T03:15:56.684Z,8.10
2023-04-02T03:18:41.322Z,8.00
2023-04-02T03:21:33.007Z,8.10
2023-04-02T03:24:05.667Z,8.10
2023-04-02T03:27:13.711Z,8.10
2023-04-02T03:29:51.855Z,8.00
2023-04-02T03:32:30.474Z,7.90
2023-04-02T03:35:03.591Z,7.90
2023-04-02T03:37:56.293Z,7.90
2023-04-02T03:40:31.957Z,7.90
2023-04-02T03:43:12.297Z,7.90
2023-04-02T03:45:49.814Z,8.00
2023-04-02T03:48:31.474Z,8.00
2023-04-02T03:51:22.803Z,8.00
2023-04-02T03:53:49.871Z,8.00
2023-04-02T03:56:29.299Z,8.00
2023-04-02T03:59:15.353Z,8.00
2023-04-02T04:02:55.188Z,8.00
2023-04-02T04:05:36.878Z,8.00
2023-04-02T04:08:42.906Z,8.00
2023-04-02T04:11:17.716Z,8.00
2023-04-02T04:13:53.935Z,8.00
2023-04-02T04:17:09.498Z,7.90
2023-04-02T04:19:48.502Z,7.90
2023-04-02T04:22:17.808Z,7.90
2023-04-02T04:24:48.253Z,7.90
2023-04-02T04:27:42.694Z,7.90
2023-04-02T04:30:34.994Z,7.90
2023-04-02T04:33:15.355Z,8.00
2023-04-02T04:35:51.589Z,8.00
2023-04-02T04:38:21.924Z,8.00
2023-04-02T04:40:55.551Z,8.00
2023-04-02T04:43:48.218Z,8.00
2023-04-02T04:46:41.924Z,8.00
2023-04-02T04:49:19.816Z,8.00
2023-04-02T04:52:07.769Z,8.00
2023-04-02T04:54:39.202Z,8.00
2023-04-02T04:57:32.154Z,8.00
2023-04-02T05:00:21.912Z,7.90
2023-04-02T05:03:34.145Z,8.00
2023-04-02T05:06:32.997Z,7.90
2023-04-02T05:09:07.947Z,7.90
2023-04-02T05:11:56.677Z,7.90
2023-04-02T05:14:40.210Z,7.90
2023-04-02T05:17:29.633Z,7.90
2023-04-02T05:20:21.735Z,7.90
2023-04-02T05:23:03.436Z,7.90
2023-04-02T05:25:32.896Z,7.90
2023-04-02T05:28:34.711Z,7.90
2023-04-02T05:31:14.681Z,7.90
2023-04-02T05:33:48.045Z,8.00
2023-04-02T05:36:27.872Z,8.00
2023-04-02T05:38:57.011Z,8.00
2023-04-02T05:41:43.894Z,8.00
2023-04-02T05:44:32.727Z,7.90
2023-04-02T05:47:14.940Z,7.90
2023-04-02T05:49:53.528Z,8.00
2023-04-02T05:52:26.317Z,8.00
2023-04-02T05:55:05.165Z,8.00
2023-04-02T05:58:21.291Z,8.00
2023-04-02T06:01:30.858Z,8.00
2023-04-02T06:04:19.687Z,8.00
2023-04-02T06:07:22.672Z,8.10
2023-04-02T06:10:05.775Z,8.10
2023-04-02T06:12:44.585Z,8.10
2023-04-02T06:15:21.871Z,8.10
2023-04-02T06:17:58.776Z,8.10
2023-04-02T06:20:26.842Z,8.10
2023-04-02T06:23:18.127Z,8.20
2023-04-02T06:26:16.439Z,8.30
2023-04-02T06:28:53.166Z,8.30
2023-04-02T06:31:49.517Z,8.30
2023-04-02T06:34:19.644Z,8.40
2023-04-02T06:36:47.542Z,8.40
2023-04-02T06:39:23.993Z,8.40
2023-04-02T06:42:04.930Z,8.50
2023-04-02T06:44:37.176Z,8.50
2023-04-02T06:47:19.160Z,8.50
2023-04-02T06:50:06.954Z,8.60
2023-04-02T06:52:40.881Z,8.60
2023-04-02T06:55:20.613Z,8.60
2023-04-02T06:57:48.725Z,8.60
2023-04-02T07:00:45.871Z,8.60
2023-04-02T07:03:29.200Z,8.70
2023-04-02T07:05:57.128Z,8.60
2023-04-02T07:08:24.066Z,8.60
2023-04-02T07:10:51.264Z,8.50
2023-04-02T07:13:22.266Z,8.50
2023-04-02T07:15:52.470Z,8.60
2023-04-02T07:18:33.395Z,8.70
2023-04-02T07:21:00.700Z,8.70
2023-04-02T07:23:27.646Z,8.80
2023-04-02T07:25:56.091Z,8.90
2023-04-02T07:28:23.283Z,9.00
2023-04-02T07:30:51.382Z,9.00
2023-04-02T07:33:23.100Z,9.00
2023-04-02T07:35:52.298Z,9.10
2023-04-02T07:38:19.325Z,9.10
2023-04-02T07:40:46.668Z,9.10
2023-04-02T07:43:13.598Z,9.10
2023-04-02T07:45:40.811Z,9.10
2023-04-02T07:48:13.532Z,9.10
2023-04-02T07:50:40.698Z,9.10
2023-04-02T07:53:08.770Z,9.10
2023-04-02T07:55:36.295Z,9.20
2023-04-02T07:58:04.126Z,9.30
2023-04-02T08:00:31.190Z,9.30
2023-04-02T08:02:58.072Z,9.40
2023-04-02T08:05:25.246Z,9.60
2023-04-02T08:07:56.665Z,9.70
2023-04-02T08:10:24.274Z,9.80
2023-04-02T08:12:51.670Z,9.90
2023-04-02T08:15:18.881Z,10.00
2023-04-02T08:17:46.730Z,10.10
2023-04-02T08:20:22.378Z,10.20
2023-04-02T08:22:50.753Z,10.30
2023-04-02T08:25:17.826Z,10.40
2023-04-02T08:27:48.084Z,10.50
2023-04-02T08:30:17.183Z,10.40
2023-04-02T08:32:44.495Z,10.30
2023-04-02T08:35:14.724Z,10.10
2023-04-02T08:37:43.024Z,10.10
2023-04-02T08:40:25.735Z,10.10
2023-04-02T08:43:23.135Z,9.90
2023-04-02T08:45:56.572Z,9.80
2023-04-02T08:48:24.311Z,9.60
2023-04-02T08:50:51.826Z,9.40
2023-04-02T08:53:25.769Z,9.30
2023-04-02T08:56:21.082Z,9.20
2023-04-02T08:58:54.713Z,9.20
2023-04-02T09:01:37.106Z,8.90
2023-04-02T09:04:14.494Z,9.00
2023-04-02T09:06:43.915Z,8.90
2023-04-02T09:09:14.630Z,9.00
2023-04-02T09:12:05.434Z,9.00
2023-04-02T09:14:51.438Z,9.10
2023-04-02T09:17:22.869Z,9.10
2023-04-02T09:19:58.043Z,9.10
2023-04-02T09:22:31.788Z,9.10
2023-04-02T09:25:04.816Z,9.00
2023-04-02T09:27:34.132Z,9.10
2023-04-02T09:30:20.491Z,9.10
2023-04-02T09:32:54.707Z,9.10
2023-04-02T09:35:28.643Z,9.00
2023-04-02T09:38:23.330Z,9.00
2023-04-02T09:40:54.891Z,9.10
2023-04-02T09:43:25.516Z,9.00
2023-04-02T09:46:15.384Z,9.00
2023-04-02T09:49:01.190Z,8.90
2023-04-02T09:51:34.719Z,8.90
2023-04-02T09:54:04.542Z,8.90
2023-04-02T09:56:36.715Z,8.90
2023-04-02T09:59:15.444Z,8.90
2023-04-02T10:01:50.310Z,8.80
2023-04-02T10:04:35.882Z,8.70
2023-04-02T10:07:04.021Z,8.60
2023-04-02T10:09:38.476Z,8.40
2023-04-02T10:12:12.523Z,8.40
2023-04-02T10:14:43.919Z,8.40
2023-04-02T10:17:32.021Z,8.30
2023-04-02T10:20:17.315Z,8.30
2023-04-02T10:22:46.242Z,8.50
2023-04-02T10:25:18.605Z,8.30
2023-04-02T10:27:59.128Z,8.20
2023-04-02T10:30:55.606Z,8.10
2023-04-02T10:33:32.335Z,8.20
2023-04-02T10:36:11.359Z,8.20
2023-04-02T10:39:08.581Z,8.20
2023-04-02T10:42:11.479Z,8.20
2023-04-02T10:44:53.357Z,8.30
2023-04-02T10:47:41.083Z,8.30
2023-04-02T10:50:50.120Z,8.30
2023-04-02T10:53:26.108Z,8.10
2023-04-02T10:56:05.626Z,7.90
2023-04-02T10:58:39.436Z,7.90
2023-04-02T11:01:20.000Z,8.00
2023-04-02T11:04:02.479Z,8.00
2023-04-02T11:06:46.967Z,8.00
2023-04-02T11:09:21.306Z,7.90
2023-04-02T11:11:53.823Z,7.90
2023-04-02T11:14:30.967Z,8.00
2023-04-02T11:17:01.509Z,8.00
2023-04-02T11:19:31.864Z,8.00
2023-04-02T11:22:02.604Z,8.10
2023-04-02T11:24:34.022Z,8.10
2023-04-02T11:27:09.858Z,8.10
2023-04-02T11:30:07.638Z,7.90
2023-04-02T11:32:42.782Z,8.10
2023-04-02T11:35:39.104Z,8.00
2023-04-02T11:38:12.014Z,8.20
2023-04-02T11:40:47.703Z,8.10
2023-04-02T11:43:33.006Z,8.10
2023-04-02T11:46:18.878Z,8.00
2023-04-02T11:48:45.854Z,8.00
2023-04-02T11:51:32.606Z,7.90
2023-04-02T11:53:59.572Z,7.70
2023-04-02T11:56:48.133Z,7.80
2023-04-02T12:00:12.803Z,7.80
2023-04-02T12:03:30.438Z,7.80
2023-04-02T12:06:42.311Z,7.80
2023-04-02T12:09:19.965Z,7.70
2023-04-02T12:11:48.117Z,7.70
2023-04-02T12:14:47.379Z,7.60
2023-04-02T12:17:37.459Z,7.90
2023-04-02T12:20:21.851Z,8.00
2023-04-02T12:22:53.204Z,8.10
2023-04-02T12:25:31.646Z,8.00
2023-04-02T12:28:12.102Z,7.90
2023-04-02T12:30:39.211Z,7.70
2023-04-02T12:33:37.520Z,7.60
2023-04-02T12:36:16.489Z,7.80
2023-04-02T12:38:52.416Z,7.70
2023-04-02T12:41:33.284Z,7.60
2023-04-02T12:44:07.086Z,7.50
2023-04-02T12:46:35.502Z,7.60
2023-04-02T12:49:21.869Z,7.70
2023-04-02T12:51:49.500Z,7.70
2023-04-02T12:54:18.021Z,7.70
2023-04-02T12:56:45.364Z,7.60
2023-04-02T12:59:36.121Z,7.50
2023-04-02T13:02:18.605Z,7.50
2023-04-02T13:04:55.966Z,7.30
2023-04-02T13:07:29.108Z,7.40
2023-04-02T13:10:00.292Z,7.30
2023-04-02T13:12:32.534Z,7.30
2023-04-02T13:15:03.158Z,7.40
2023-04-02T13:17:45.805Z,7.50
2023-04-02T13:20:42.992Z,7.60
2023-04-02T13:23:34.285Z,7.70
2023-04-02T13:26:08.415Z,7.60
2023-04-02T13:28:35.393Z,7.70
2023-04-02T13:31:02.243Z,7.60
2023-04-02T13:33:29.033Z,7.60
2023-04-02T13:35:56.011Z,7.60
2023-04-02T13:38:22.871Z,7.70
2023-04-02T13:40:49.691Z,7.70
2023-04-02T13:43:19.910Z,7.50
2023-04-02T13:45:52.296Z,7.40
2023-04-02T13:48:19.482Z,7.30
2023-04-02T13:50:46.776Z,7.30
2023-04-02T13:53:23.120Z,7.50
2023-04-02T13:55:50.248Z,7.70
2023-04-02T13:58:17.138Z,7.60
2023-04-02T14:00:44.241Z,7.70
2023-04-02T14:03:24.146Z,7.60
2023-04-02T14:06:07.999Z,7.60
2023-04-02T14:09:09.717Z,7.70
2023-04-02T14:12:33.473Z,7.70
2023-04-02T14:15:25.605Z,7.60
2023-04-02T14:18:36.739Z,7.60
2023-04-02T14:21:17.283Z,7.70
2023-04-02T14:24:19.348Z,7.60
2023-04-02T14:27:09.188Z,7.70
2023-04-02T14:29:54.085Z,7.70
2023-04-02T14:32:39.445Z,7.70
2023-04-02T14:35:43.629Z,7.80
2023-04-02T14:38:43.472Z,7.70
2023-04-02T14:41:19.408Z,7.70
2023-04-02T14:43:56.602Z,7.70
2023-04-02T14:46:29.023Z,7.70
2023-04-02T14:49:24.414Z,7.60
2023-04-02T14:52:04.384Z,7.30
2023-04-02T14:54:39.081Z,7.20
2023-04-02T14:57:23.162Z,7.10
2023-04-02T15:00:10.717Z,7.20
2023-04-02T15:02:51.455Z,7.20
2023-04-02T15:05:47.833Z,7.30
2023-04-02T15:08:23.958Z,7.30
2023-04-02T15:11:17.367Z,7.40
2023-04-02T15:13:54.555Z,7.40
2023-04-02T15:16:26.746Z,7.40
2023-04-02T15:18:57.488Z,7.30
2023-04-02T15:21:57.722Z,7.30
2023-04-02T15:25:08.904Z,7.20
2023-04-02T15:27:47.989Z,7.20
2023-04-02T15:30:31.120Z,7.10
2023-04-02T15:33:30.251Z,7.20
2023-04-02T15:36:37.738Z,7.30
2023-04-02T15:39:41.125Z,7.20
2023-04-02T15:42:29.261Z,7.10
2023-04-02T15:45:08.746Z,6.80
2023-04-02T15:47:55.500Z,6.90
2023-04-02T15:50:31.517Z,6.80
2023-04-02T15:53:08.750Z,6.70
2023-04-02T15:55:46.489Z,6.60
2023-04-02T15:58:27.412Z,6.60
2023-04-02T16:01:32.320Z,6.60
2023-04-02T16:04:26.712Z,6.50
2023-04-02T16:07:44.058Z,6.50
2023-04-02T16:10:41.284Z,6.40
2023-04-02T16:13:35.925Z,6.30
2023-04-02T16:16:22.811Z,6.20
2023-04-02T16:19:20.991Z,6.20
2023-04-02T16:22:01.816Z,6.10
2023-04-02T16:24:28.728Z,5.80
2023-04-02T16:27:01.151Z,5.70
2023-04-02T16:30:01.288Z,5.70
2023-04-02T16:33:30.391Z,5.80
2023-04-02T16:36:21.508Z,5.80
2023-04-02T16:39:08.122Z,5.70
2023-04-02T16:41:59.063Z,5.60
2023-04-02T16:44:40.931Z,5.50
2023-04-02T16:47:50.592Z,5.50
2023-04-02T16:50:57.791Z,5.40
2023-04-02T16:53:30.532Z,5.30
2023-04-02T16:56:35.435Z,5.20
2023-04-02T16:59:33.375Z,5.30
2023-04-02T17:02:32.237Z,5.20
2023-04-02T17:05:05.767Z,5.10
2023-04-02T17:08:03.070Z,5.20
2023-04-02T17:10:33.746Z,5.20
2023-04-02T17:13:33.649Z,5.20
2023-04-02T17:16:13.219Z,5.10
2023-04-02T17:18:43.782Z,5.10
2023-04-02T17:21:15.423Z,5.10
2023-04-02T17:23:56.750Z,5.20
2023-04-02T17:26:31.408Z,5.20
2023-04-02T17:29:07.050Z,5.10
2023-04-02T17:31:35.789Z,5.20
2023-04-02T17:34:15.783Z,5.20
2023-04-02T17:37:13.160Z,5.20
2023-04-02T17:40:20.300Z,5.20
2023-04-02T17:42:56.250Z,5.10
2023-04-02T17:45:46.297Z,5.00
2023-04-02T17:48:28.463Z,5.00
2023-04-02T17:51:19.766Z,4.90
2023-04-02T17:54:10.601Z,4.90
2023-04-02T17:57:00.531Z,5.00
2023-04-02T17:59:54.873Z,5.00
2023-04-02T18:03:11.259Z,5.00
2023-04-02T18:06:06.616Z,5.00
2023-04-02T18:09:00.200Z,5.00
2023-04-02T18:12:13.346Z,5.00
2023-04-02T18:15:09.876Z,5.00
2023-04-02T18:18:03.196Z,4.90
2023-04-02T18:21:24.210Z,4.90
2023-04-02T18:24:15.277Z,4.90
2023-04-02T18:27:21.843Z,5.00
2023-04-02T18:30:32.733Z,4.90
2023-04-02T18:33:11.176Z,4.80
2023-04-02T18:36:11.299Z,4.80
2023-04-02T18:38:44.247Z,4.70
2023-04-02T18:41:33.832Z,4.90
2023-04-02T18:44:04.694Z,4.90
2023-04-02T18:46:51.261Z,5.00
2023-04-02T18:49:49.994Z,5.00
2023-04-02T18:52:18.611Z,5.10
2023-04-02T18:54:49.957Z,5.00
2023-04-02T18:57:34.007Z,5.00
2023-04-02T19:00:26.343Z,5.00
2023-04-02T19:03:14.373Z,5.00
2023-04-02T19:06:03.364Z,5.10
2023-04-02T19:08:47.198Z,5.00
2023-04-02T19:11:29.989Z,4.90
2023-04-02T19:14:16.955Z,5.00
2023-04-02T19:17:03.019Z,5.00
2023-04-02T19:19:58.095Z,4.90
2023-04-02T19:23:04.144Z,5.00
2023-04-02T19:25:54.499Z,4.90
2023-04-02T19:28:31.148Z,4.90
2023-04-02T19:31:37.431Z,4.80
2023-04-02T19:34:20.888Z,4.90
2023-04-02T19:36:56.033Z,4.90
2023-04-02T19:40:22.717Z,4.80
2023-04-02T19:42:52.777Z,4.80
2023-04-02T19:45:32.436Z,4.70
2023-04-02T19:48:03.977Z,4.70
2023-04-02T19:50:31.033Z,4.70
2023-04-02T19:52:57.899Z,4.70
2023-04-02T19:55:24.955Z,4.70
2023-04-02T19:57:54.645Z,4.80
2023-04-02T20:00:24.700Z,4.90
2023-04-02T20:02:51.585Z,4.80
2023-04-02T20:05:18.713Z,4.80
2023-04-02T20:07:45.811Z,4.80
2023-04-02T20:10:12.764Z,4.70
2023-04-02T20:12:39.564Z,4.70
2023-04-02T20:15:07.769Z,4.70
2023-04-02T20:17:34.607Z,4.80
2023-04-02T20:20:01.623Z,4.80
2023-04-02T20:22:28.814Z,4.80
2023-04-02T20:24:55.694Z,4.80
2023-04-02T20:27:22.481Z,4.70
2023-04-02T20:29:49.370Z,4.70
2023-04-02T20:32:17.451Z,4.60
2023-04-02T20:34:44.502Z,4.70
2023-04-02T20:37:11.368Z,4.70
2023-04-02T20:39:39.128Z,4.70
2023-04-02T20:42:06.175Z,4.60
2023-04-02T20:44:33.047Z,4.60
2023-04-02T20:46:59.925Z,4.60
2023-04-02T20:49:26.875Z,4.60
2023-04-02T20:51:53.849Z,4.60
2023-04-02T20:54:20.844Z,4.50
2023-04-02T20:56:47.698Z,4.50
2023-04-02T20:59:14.600Z,4.60
2023-04-02T21:01:41.527Z,4.60
2023-04-02T21:04:08.938Z,4.70
2023-04-02T21:06:38.930Z,4.70
2023-04-02T21:09:11.090Z,4.60
2023-04-02T21:11:37.871Z,4.50
2023-04-02T21:14:04.737Z,4.60
2023-04-02T21:16:32.369Z,4.60
2023-04-02T21:19:06.567Z,4.60
2023-04-02T21:21:35.015Z,4.40
2023-04-02T21:24:05.932Z,4.40
2023-04-02T21:26:38.160Z,4.40
2023-04-02T21:29:06.026Z,4.40
2023-04-02T21:31:38.479Z,4.50
2023-04-02T21:34:07.087Z,4.40
2023-04-02T21:36:37.560Z,4.40
2023-04-02T21:39:18.039Z,4.50
2023-04-02T21:41:49.840Z,4.40
2023-04-02T21:44:19.720Z,4.40
2023-04-02T21:46:47.048Z,4.40
2023-04-02T21:49:17.924Z,4.50
2023-04-02T21:51:46.843Z,4.50
2023-04-02T21:54:14.051Z,4.60
2023-04-02T21:56:44.205Z,4.50
2023-04-02T21:59:13.751Z,4.50
2023-04-02T22:01:45.366Z,4.60
2023-04-02T22:04:18.842Z,4.60
2023-04-02T22:06:46.382Z,4.60
2023-04-02T22:09:23.891Z,4.50
2023-04-02T22:11:55.594Z,4.50
2023-04-02T22:14:22.878Z,4.50
2023-04-02T22:16:49.802Z,4.50
2023-04-02T22:19:17.292Z,4.50
2023-04-02T22:21:44.665Z,4.50
2023-04-02T22:24:18.210Z,4.60
2023-04-02T22:26:46.675Z,4.60
2023-04-02T22:29:13.774Z,4.50
2023-04-02T22:31:40.906Z,4.50
2023-04-02T22:34:07.999Z,4.50
2023-04-02T22:36:35.761Z,4.50
2023-04-02T22:39:05.581Z,4.50
2023-04-02T22:41:33.056Z,4.60
2023-04-02T22:44:01.679Z,4.60
2023-04-02T22:46:30.215Z,4.60
2023-04-02T22:48:57.465Z,4.60
2023-04-02T22:51:25.579Z,4.60
2023-04-02T22:53:54.967Z,4.60
2023-04-02T22:56:29.607Z,4.60
2023-04-02T22:58:56.472Z,4.50
2023-04-02T23:01:31.682Z,4.50
2023-04-02T23:03:58.908Z,4.40
2023-04-02T23:06:27.192Z,4.50
2023-04-02T23:08:54.104Z,4.50
2023-04-02T23:11:24.601Z,4.60
2023-04-02T23:13:53.377Z,4.60
2023-04-02T23:16:22.523Z,4.60
2023-04-02T23:18:49.979Z,4.50
2023-04-02T23:21:19.382Z,4.40
2023-04-02T23:23:47.622Z,4.40
2023-04-02T23:26:29.426Z,4.50
2023-04-02T23:28:58.970Z,4.60
2023-04-02T23:31:26.404Z,4.60
2023-04-02T23:33:53.688Z,4.60
2023-04-02T23:36:28.540Z,4.50
2023-04-02T23:39:02.660Z,4.60
2023-04-02T23:41:31.318Z,4.50
2023-04-02T23:43:59.132Z,4.50
2023-04-02T23:46:26.241Z,4.50
2023-04-02T23:48:54.073Z,4.50
2023-04-02T23:51:21.365Z,4.50
2023-04-02T23:53:49.799Z,4.50
2023-04-02T23:56:17.388Z,4.40
2023-04-02T23:58:44.625Z,4.50
